Time;durP1;ratioP1;P1;durP2;ratioP2;P2;SDS_P1;SDS_P2;PMS_P1;PMS_P2;Temp;Humidity;BMP_temperature;BMP_pressure;BME280_temperature;BME280_humidity;BME280_pressure;Samples;Min_cycle;Max_cycle;Signal;HPM_P1;HPM_P2
2020/12/19 00:01:09;;;;;;;16.02;12.77;;;5.10;99.90;;;;;;5091498;28;20207;-84
2020/12/19 00:03:36;;;;;;;19.83;14.48;;;5.10;99.90;;;;;;5092307;28;20222;-82
2020/12/19 00:06:06;;;;;;;14.95;12.73;;;5.20;99.90;;;;;;5092644;28;20363;-84
2020/12/19 00:08:34;;;;;;;17.23;14.82;;;5.20;99.90;;;;;;5098183;22;20230;-73
2020/12/19 00:11:00;;;;;;;15.88;12.20;;;5.10;99.90;;;;;;5074552;28;20203;-71
2020/12/19 00:13:27;;;;;;;15.73;13.60;;;5.20;99.90;;;;;;5074536;28;20653;-71
2020/12/19 00:15:54;;;;;;;19.55;13.75;;;5.20;99.90;;;;;;5074118;28;20219;-73
2020/12/19 00:18:21;;;;;;;16.27;12.80;;;5.10;99.90;;;;;;5073511;28;20247;-71
2020/12/19 00:21:16;;;;;;;19.00;14.07;;;5.20;99.90;;;;;;5074284;28;20198;-72
2020/12/19 00:23:43;;;;;;;18.30;13.43;;;5.20;99.90;;;;;;5074233;28;20602;-73
2020/12/19 00:26:09;;;;;;;15.85;12.10;;;5.20;99.90;;;;;;5065309;28;20226;-71
2020/12/19 00:28:41;;;;;;;17.05;13.50;;;5.20;99.90;;;;;;5073788;28;20179;-71
2020/12/19 00:31:08;;;;;;;19.75;15.00;;;5.20;99.90;;;;;;5073533;28;20213;-71
2020/12/19 00:33:34;;;;;;;18.08;14.07;;;5.20;99.90;;;;;;5073280;28;20214;-72
2020/12/19 00:36:02;;;;;;;15.55;13.93;;;5.30;99.90;;;;;;5073017;28;20701;-70
2020/12/19 00:38:29;;;;;;;19.00;13.80;;;5.20;99.90;;;;;;5072977;28;20624;-71
2020/12/19 00:40:56;;;;;;;17.65;14.80;;;5.20;99.90;;;;;;5073208;28;20187;-71
2020/12/19 00:43:23;;;;;;;18.25;13.65;;;5.20;99.90;;;;;;5073400;28;20202;-71
2020/12/19 00:45:50;;;;;;;16.85;12.55;;;5.20;99.90;;;;;;5073010;28;20363;-73
2020/12/19 00:48:16;;;;;;;14.30;12.15;;;5.20;99.90;;;;;;5073192;28;20221;-72
2020/12/19 00:50:43;;;;;;;17.20;14.60;;;5.20;99.90;;;;;;5072941;28;20261;-72
2020/12/19 00:53:09;;;;;;;20.38;14.73;;;5.20;99.90;;;;;;5073300;28;20222;-71
2020/12/19 00:55:36;;;;;;;18.00;16.08;;;5.20;99.90;;;;;;5064467;28;20214;-71
2020/12/19 00:58:03;;;;;;;19.05;13.57;;;5.20;99.90;;;;;;5073239;28;20207;-70
2020/12/19 01:00:30;;;;;;;17.85;14.55;;;5.20;99.90;;;;;;5072944;28;20297;-71
2020/12/19 01:02:57;;;;;;;19.85;15.98;;;5.30;99.90;;;;;;5073496;28;20210;-71
2020/12/19 01:05:23;;;;;;;19.92;15.00;;;5.30;99.90;;;;;;5072980;28;20237;-72
2020/12/19 01:07:50;;;;;;;22.00;16.25;;;5.30;99.90;;;;;;5073292;28;20214;-71
2020/12/19 01:10:16;;;;;;;19.77;15.10;;;5.30;99.90;;;;;;5072334;28;20235;-71
2020/12/19 01:12:43;;;;;;;19.70;16.33;;;5.30;99.90;;;;;;5073060;28;20217;-71
2020/12/19 01:15:11;;;;;;;20.85;16.85;;;5.30;99.90;;;;;;5072669;28;20218;-72
2020/12/19 01:17:40;;;;;;;24.15;16.83;;;5.30;99.90;;;;;;5072946;28;20202;-71
2020/12/19 01:20:07;;;;;;;19.02;15.00;;;5.30;99.90;;;;;;5068943;28;20203;-71
2020/12/19 01:22:34;;;;;;;20.77;16.38;;;5.30;99.90;;;;;;5072794;28;20187;-70
2020/12/19 01:25:00;;;;;;;23.75;18.25;;;5.30;99.90;;;;;;5064389;28;20231;-70
2020/12/19 01:27:27;;;;;;;21.08;17.65;;;5.30;99.90;;;;;;5052674;28;20206;-71
2020/12/19 01:29:53;;;;;;;20.70;16.10;;;5.30;99.90;;;;;;5052010;28;20203;-71
2020/12/19 01:32:21;;;;;;;24.05;17.55;;;5.20;99.90;;;;;;5052758;28;20203;-71
2020/12/19 01:34:47;;;;;;;22.80;16.90;;;5.30;99.90;;;;;;5052655;28;20188;-71
2020/12/19 01:37:16;;;;;;;20.95;15.55;;;5.30;99.90;;;;;;5052708;28;20207;-71
2020/12/19 01:39:42;;;;;;;18.05;15.07;;;5.30;99.90;;;;;;5051959;28;20213;-71
2020/12/19 01:42:09;;;;;;;24.00;17.65;;;5.30;99.90;;;;;;5052581;28;20212;-74
2020/12/19 01:44:36;;;;;;;20.90;17.33;;;5.30;99.90;;;;;;5052021;28;20203;-71
2020/12/19 01:47:03;;;;;;;26.60;18.90;;;5.20;99.90;;;;;;5052684;28;20218;-71
2020/12/19 01:49:33;;;;;;;26.45;18.20;;;5.20;99.90;;;;;;5052198;28;20620;-71
2020/12/19 01:52:03;;;;;;;21.23;17.98;;;5.20;99.90;;;;;;5052833;28;20204;-71
2020/12/19 01:54:30;;;;;;;26.27;18.90;;;5.20;99.90;;;;;;5062587;28;20246;-72
2020/12/19 01:56:58;;;;;;;26.80;20.40;;;5.20;99.90;;;;;;5068155;28;20210;-71
2020/12/19 01:59:27;;;;;;;28.40;21.70;;;5.20;99.90;;;;;;5072091;28;20206;-70
2020/12/19 02:01:54;;;;;;;25.42;18.92;;;5.10;99.90;;;;;;5072845;28;20199;-70
2020/12/19 02:04:22;;;;;;;24.52;20.02;;;5.10;99.90;;;;;;5072894;28;20700;-72
2020/12/19 02:06:52;;;;;;;31.67;22.50;;;5.20;99.90;;;;;;5072240;28;20227;-71
2020/12/19 02:09:21;;;;;;;28.55;20.98;;;5.10;99.90;;;;;;5071740;28;20571;-73
2020/12/19 02:11:48;;;;;;;21.13;16.55;;;5.10;99.90;;;;;;5072632;28;20191;-72
2020/12/19 02:14:16;;;;;;;27.58;20.30;;;5.10;99.90;;;;;;5072201;28;20629;-71
2020/12/19 02:16:58;;;;;;;30.50;21.98;;;5.10;99.90;;;;;;5072146;28;20227;-72
2020/12/19 02:19:25;;;;;;;26.77;20.67;;;5.00;99.90;;;;;;5069143;28;20578;-72
2020/12/19 02:21:53;;;;;;;26.02;19.38;;;5.10;99.90;;;;;;5072253;28;20608;-72
2020/12/19 02:24:20;;;;;;;32.50;23.45;;;5.10;99.90;;;;;;5071577;28;20207;-72
2020/12/19 02:26:48;;;;;;;21.92;18.48;;;5.10;99.90;;;;;;5057282;28;20223;-72
2020/12/19 02:29:15;;;;;;;26.00;19.20;;;5.10;99.90;;;;;;5051263;28;20211;-71
2020/12/19 02:31:42;;;;;;;29.10;22.63;;;5.10;99.90;;;;;;5052346;28;20219;-72
2020/12/19 02:34:09;;;;;;;31.60;23.52;;;5.10;99.90;;;;;;5051678;28;20203;-71
2020/12/19 02:36:35;;;;;;;29.73;20.88;;;5.10;99.90;;;;;;5051724;28;20539;-71
2020/12/19 02:39:02;;;;;;;29.42;23.25;;;5.10;99.90;;;;;;5051382;28;20505;-71
2020/12/19 02:41:34;;;;;;;31.63;23.65;;;5.10;99.90;;;;;;5052105;28;20192;-71
2020/12/19 02:44:01;;;;;;;30.58;23.88;;;5.20;99.90;;;;;;5052178;28;20257;-70
2020/12/19 02:46:30;;;;;;;25.50;21.40;;;5.10;99.90;;;;;;5052073;28;20228;-71
2020/12/19 02:48:57;;;;;;;28.42;20.25;;;5.00;99.90;;;;;;5051102;28;20203;-72
2020/12/19 02:51:24;;;;;;;37.17;25.95;;;5.00;99.90;;;;;;5051810;28;20199;-72
2020/12/19 02:53:51;;;;;;;34.63;24.63;;;5.00;99.90;;;;;;5061087;28;20203;-71
2020/12/19 02:56:18;;;;;;;36.40;26.67;;;5.00;99.90;;;;;;5066084;28;20276;-71
2020/12/19 02:58:45;;;;;;;34.53;25.75;;;5.00;99.90;;;;;;5074921;28;20203;-71
2020/12/19 03:01:12;;;;;;;31.38;21.88;;;5.00;99.90;;;;;;5075304;28;20225;-71
2020/12/19 03:03:38;;;;;;;31.88;23.92;;;5.00;99.90;;;;;;5075471;28;20207;-71
2020/12/19 03:06:05;;;;;;;34.60;26.38;;;5.00;99.90;;;;;;5075058;28;20632;-71
2020/12/19 03:08:31;;;;;;;36.00;26.00;;;5.10;99.90;;;;;;5075026;28;20279;-71
2020/12/19 03:10:58;;;;;;;39.10;26.48;;;5.10;99.90;;;;;;5064245;28;20199;-71
2020/12/19 03:13:25;;;;;;;36.67;27.10;;;5.10;99.90;;;;;;5073038;28;20195;-72
2020/12/19 03:15:52;;;;;;;38.08;26.60;;;5.10;99.90;;;;;;5075147;28;20215;-72
2020/12/19 03:18:19;;;;;;;33.38;25.10;;;5.10;99.90;;;;;;5074866;28;20206;-71
2020/12/19 03:20:45;;;;;;;36.78;28.08;;;5.10;99.90;;;;;;5075113;28;20202;-71
2020/12/19 07:18:47;;;;;;;42.80;30.13;;;4.90;99.90;;;;;;5073777;28;20330;-84
2020/12/19 07:21:15;;;;;;;42.50;30.15;;;4.90;99.90;;;;;;5073257;28;20216;-84
2020/12/19 07:23:41;;;;;;;36.67;24.77;;;4.90;99.90;;;;;;5066898;28;20216;-84
2020/12/19 07:26:13;;;;;;;47.20;34.38;;;4.90;99.90;;;;;;5070978;28;20284;-87
2020/12/19 07:29:00;;;;;;;47.03;31.33;;;4.80;99.90;;;;;;5062333;28;20204;-86
2020/12/19 07:31:41;;;;;;;45.40;29.73;;;4.90;99.90;;;;;;5059920;28;20285;-84
2020/12/19 07:34:24;;;;;;;43.38;30.02;;;5.00;99.90;;;;;;5060348;28;20223;-84
2020/12/19 07:37:04;;;;;;;55.28;34.75;;;5.00;99.90;;;;;;5060499;28;20221;-84
2020/12/19 07:39:47;;;;;;;47.35;32.38;;;5.00;99.90;;;;;;5060549;28;20199;-84
2020/12/19 07:42:16;;;;;;;39.03;30.30;;;5.00;99.90;;;;;;5061987;28;20207;-86
2020/12/19 07:47:35;;;;;;;50.67;33.28;;;5.10;99.90;;;;;;5063215;28;20227;-84
2020/12/19 07:53:35;;;;;;;37.65;28.05;;;5.20;99.90;;;;;;5057276;28;20207;-84
2020/12/19 07:56:10;;;;;;;51.22;32.25;;;5.10;99.90;;;;;;5062508;28;20268;-83
2020/12/19 07:58:51;;;;;;;50.45;33.05;;;5.10;99.90;;;;;;5064887;28;20211;-84
2020/12/19 08:32:05;;;;;;;37.17;28.55;;;5.50;99.90;;;;;;5021826;28;20269;-84
2020/12/19 08:58:30;;;;;;;25.70;20.10;;;7.60;99.90;;;;;;5059102;28;20218;-83
2020/12/19 09:01:01;;;;;;;22.63;17.15;;;8.30;99.90;;;;;;5058675;28;20223;-88
2020/12/19 09:03:29;;;;;;;21.00;17.80;;;9.00;99.90;;;;;;5064579;28;20608;-85
2020/12/19 09:06:01;;;;;;;23.63;19.15;;;9.50;99.90;;;;;;5080348;28;20233;-86
2020/12/19 09:08:35;;;;;;;18.80;16.90;;;9.80;99.90;;;;;;5082863;28;20226;-84
2020/12/19 09:11:02;;;;;;;19.65;17.60;;;10.40;99.90;;;;;;5087093;28;20205;-87
2020/12/19 09:13:30;;;;;;;17.52;15.65;;;11.20;99.90;;;;;;5089648;28;20232;-85
2020/12/19 09:16:05;;;;;;;19.65;17.52;;;11.50;99.90;;;;;;5086639;28;20216;-86
2020/12/19 09:18:36;;;;;;;17.48;15.35;;;11.90;99.90;;;;;;5082976;28;20220;-86
2020/12/19 09:21:05;;;;;;;20.55;17.10;;;12.40;99.90;;;;;;5082335;28;20193;-84
2020/12/19 09:23:31;;;;;;;21.35;18.80;;;12.40;99.90;;;;;;5097290;22;20222;-81
2020/12/19 09:26:03;;;;;;;19.52;17.48;;;12.50;99.90;;;;;;5106575;22;20237;-71
2020/12/19 09:28:30;;;;;;;22.10;18.25;;;12.60;99.90;;;;;;5093805;28;20202;-71
2020/12/19 09:30:58;;;;;;;20.67;18.23;;;12.90;99.90;;;;;;5093902;28;20213;-70
2020/12/19 09:33:25;;;;;;;17.58;15.68;;;13.10;99.90;;;;;;5093862;28;20190;-71
2020/12/19 09:35:53;;;;;;;18.42;16.45;;;13.20;99.90;;;;;;5094064;28;20676;-72
2020/12/19 09:38:20;;;;;;;19.30;17.35;;;13.00;99.90;;;;;;5093501;28;20688;-74
2020/12/19 09:40:47;;;;;;;19.50;17.40;;;13.40;99.90;;;;;;5087735;28;20205;-69
2020/12/19 09:43:14;;;;;;;20.63;17.70;;;13.50;99.80;;;;;;5076104;28;20203;-69
2020/12/19 09:45:41;;;;;;;19.65;17.65;;;13.20;99.30;;;;;;5078107;28;20214;-69
2020/12/19 09:48:08;;;;;;;22.00;19.48;;;13.50;99.70;;;;;;5084716;28;20619;-70
2020/12/19 09:50:35;;;;;;;21.27;19.08;;;13.40;99.10;;;;;;5072611;28;20672;-70
2020/12/19 09:53:02;;;;;;;20.42;17.98;;;13.70;99.30;;;;;;5073264;28;20220;-69
2020/12/19 09:55:28;;;;;;;22.07;17.77;;;13.90;98.60;;;;;;5072202;28;20227;-71
2020/12/19 09:57:55;;;;;;;19.60;17.45;;;14.10;98.30;;;;;;5077185;28;20442;-69
2020/12/19 10:00:22;;;;;;;18.70;16.55;;;14.40;97.40;;;;;;5093002;28;20187;-68
2020/12/19 10:02:53;;;;;;;19.27;17.02;;;14.30;97.30;;;;;;5085260;28;20557;-69
2020/12/19 10:05:20;;;;;;;20.30;16.92;;;14.50;97.30;;;;;;5094672;28;20230;-69
2020/12/19 10:07:47;;;;;;;19.40;16.17;;;14.40;97.50;;;;;;5097722;28;20195;-70
2020/12/19 10:10:13;;;;;;;19.25;16.83;;;14.40;96.80;;;;;;5096628;28;20264;-70
2020/12/19 10:12:40;;;;;;;20.77;16.70;;;14.30;97.30;;;;;;5097390;28;20202;-70
2020/12/19 10:15:08;;;;;;;18.70;16.10;;;13.90;97.60;;;;;;5096658;28;20230;-71
2020/12/19 10:17:35;;;;;;;21.80;16.65;;;13.80;98.00;;;;;;5088576;28;20600;-69
2020/12/19 10:20:04;;;;;;;19.52;17.35;;;13.60;98.60;;;;;;5096138;28;20553;-70
2020/12/19 10:22:31;;;;;;;19.63;16.63;;;13.30;98.90;;;;;;5096957;28;20197;-71
2020/12/19 10:24:58;;;;;;;17.08;15.27;;;13.20;99.40;;;;;;5101581;28;20260;-70
2020/12/19 10:27:25;;;;;;;17.08;15.27;;;13.20;99.80;;;;;;5116845;28;20354;-71
2020/12/19 10:29:51;;;;;;;20.05;16.70;;;13.60;99.40;;;;;;5116446;28;20201;-68
2020/12/19 10:32:19;;;;;;;17.98;15.80;;;13.10;99.80;;;;;;5117335;28;20213;-69
2020/12/19 10:34:55;;;;;;;20.13;17.27;;;13.00;99.90;;;;;;5117382;28;20210;-70
2020/12/19 10:37:23;;;;;;;24.10;19.65;;;12.40;99.90;;;;;;5093439;28;20234;-69
2020/12/19 10:39:50;;;;;;;20.30;16.80;;;12.00;99.90;;;;;;5088854;28;20202;-69
2020/12/19 10:42:17;;;;;;;22.48;20.05;;;11.30;99.90;;;;;;5097869;28;20196;-70
2020/12/19 10:44:43;;;;;;;21.95;19.38;;;11.20;99.90;;;;;;5096488;28;20552;-69
2020/12/19 10:47:10;;;;;;;21.50;18.65;;;10.80;99.90;;;;;;5096559;28;20712;-70
2020/12/19 10:49:37;;;;;;;22.30;19.27;;;10.50;99.90;;;;;;5078161;28;20217;-71
2020/12/19 10:52:04;;;;;;;24.20;21.60;;;10.10;99.90;;;;;;5096217;28;20210;-71
2020/12/19 10:54:32;;;;;;;21.85;19.55;;;10.00;99.90;;;;;;5094806;28;20292;-68
2020/12/19 10:56:59;;;;;;;25.52;21.98;;;9.90;99.90;;;;;;5094093;28;20195;-70
2020/12/19 10:59:26;;;;;;;23.35;19.77;;;9.80;99.90;;;;;;5095650;28;20210;-69
2020/12/19 11:01:53;;;;;;;21.92;18.48;;;9.80;99.90;;;;;;5096141;28;20737;-68
2020/12/19 11:04:20;;;;;;;20.75;18.55;;;9.70;99.90;;;;;;5095979;28;20258;-69
2020/12/19 11:06:47;;;;;;;20.45;17.98;;;9.50;99.90;;;;;;5095601;28;20228;-72
2020/12/19 11:09:13;;;;;;;20.20;17.50;;;9.60;99.90;;;;;;5093113;28;20191;-71
2020/12/19 11:11:41;;;;;;;23.40;19.77;;;9.70;99.90;;;;;;5094116;28;20216;-69
2020/12/19 11:14:08;;;;;;;26.95;21.27;;;9.70;99.90;;;;;;5094372;28;20203;-70
2020/12/19 11:16:36;;;;;;;22.25;17.73;;;9.70;99.90;;;;;;5092827;28;20229;-70
2020/12/19 11:19:04;;;;;;;22.13;19.30;;;9.60;99.90;;;;;;5092738;28;20210;-72
2020/12/19 11:21:30;;;;;;;22.08;18.13;;;9.60;99.90;;;;;;5095554;28;20217;-71
2020/12/19 11:23:57;;;;;;;24.92;20.48;;;9.50;99.90;;;;;;5094437;28;20198;-70
2020/12/19 11:26:24;;;;;;;21.58;19.00;;;9.50;99.90;;;;;;5095535;28;20226;-72
2020/12/19 11:28:52;;;;;;;20.10;17.88;;;9.50;99.90;;;;;;5094379;28;20202;-71
2020/12/19 11:31:26;;;;;;;26.80;20.17;;;9.60;99.90;;;;;;5092959;28;20620;-72
2020/12/19 11:33:52;;;;;;;24.27;21.30;;;9.60;99.90;;;;;;5078471;28;20218;-71
2020/12/19 11:36:19;;;;;;;28.63;20.20;;;9.60;99.90;;;;;;5087011;28;20225;-73
2020/12/19 11:38:46;;;;;;;25.63;20.15;;;9.50;99.90;;;;;;5095290;28;20202;-72
2020/12/19 11:41:14;;;;;;;25.55;20.75;;;9.50;99.90;;;;;;5095417;28;20209;-70
2020/12/19 11:43:41;;;;;;;25.45;21.27;;;9.50;99.90;;;;;;5095581;28;20206;-70
2020/12/19 11:46:09;;;;;;;21.77;17.80;;;9.50;99.90;;;;;;5095182;28;20233;-72
2020/12/19 11:48:35;;;;;;;25.48;19.77;;;9.60;99.90;;;;;;5096478;28;20631;-72
2020/12/19 11:51:02;;;;;;;24.90;18.45;;;9.50;99.90;;;;;;5095444;28;20201;-71
2020/12/19 11:53:29;;;;;;;26.52;19.90;;;9.60;99.90;;;;;;5095302;28;20227;-71
2020/12/19 11:56:03;;;;;;;23.63;18.40;;;9.60;99.90;;;;;;5095340;28;20235;-71
2020/12/19 11:58:30;;;;;;;23.98;19.15;;;9.60;99.90;;;;;;5095340;28;20647;-71
2020/12/19 12:01:06;;;;;;;19.05;17.05;;;9.70;99.90;;;;;;5097248;28;20186;-70
2020/12/19 12:03:34;;;;;;;24.65;19.88;;;9.60;99.90;;;;;;5095669;28;20193;-71
2020/12/19 12:06:02;;;;;;;23.38;19.25;;;9.70;99.90;;;;;;5094848;28;20230;-72
2020/12/19 12:08:29;;;;;;;22.77;17.75;;;9.60;99.90;;;;;;5078797;28;20194;-70
2020/12/19 12:10:55;;;;;;;21.90;19.60;;;9.70;99.90;;;;;;5095338;28;20194;-71
2020/12/19 12:13:22;;;;;;;21.88;18.58;;;9.60;99.90;;;;;;5095097;28;20239;-71
2020/12/19 12:15:49;;;;;;;22.60;19.55;;;9.60;99.90;;;;;;5094337;28;20233;-70
2020/12/19 12:18:15;;;;;;;23.17;17.42;;;9.70;99.90;;;;;;5094004;28;20212;-71
2020/12/19 12:20:43;;;;;;;23.92;18.70;;;9.80;99.90;;;;;;5094421;28;20200;-71
2020/12/19 12:23:12;;;;;;;24.73;19.77;;;9.80;99.90;;;;;;5095223;28;20221;-71
2020/12/19 12:25:40;;;;;;;20.80;18.05;;;9.80;99.90;;;;;;5105416;28;20225;-72
2020/12/19 12:28:07;;;;;;;17.90;15.93;;;9.80;99.90;;;;;;5113958;28;20255;-73
2020/12/19 12:30:36;;;;;;;20.80;17.70;;;9.90;99.90;;;;;;5114629;28;20225;-73
2020/12/19 12:33:03;;;;;;;19.70;15.85;;;10.00;99.90;;;;;;5115350;28;20201;-72
2020/12/19 12:35:30;;;;;;;20.10;17.90;;;10.00;99.90;;;;;;5115133;28;20729;-70
2020/12/19 12:37:58;;;;;;;24.52;18.23;;;10.00;99.90;;;;;;5114883;28;20205;-72
2020/12/19 12:40:24;;;;;;;21.85;17.85;;;10.10;99.90;;;;;;5116568;28;20254;-74
2020/12/19 12:42:51;;;;;;;20.80;17.58;;;10.10;99.90;;;;;;5115235;28;20247;-69
2020/12/19 12:45:18;;;;;;;20.63;17.10;;;10.20;99.90;;;;;;5114506;28;20605;-71
2020/12/19 12:47:45;;;;;;;20.45;17.63;;;10.20;99.90;;;;;;5109282;28;20212;-73
2020/12/19 12:50:14;;;;;;;21.13;17.70;;;10.30;99.90;;;;;;5104259;28;20548;-72
2020/12/19 12:52:43;;;;;;;21.08;16.95;;;10.30;99.90;;;;;;5094380;28;20315;-72
2020/12/19 12:55:11;;;;;;;21.95;17.20;;;10.40;99.90;;;;;;5093992;28;20241;-72
2020/12/19 12:57:37;;;;;;;18.02;16.10;;;10.40;99.90;;;;;;5094272;28;20201;-71
2020/12/19 13:00:05;;;;;;;21.95;17.40;;;10.40;99.90;;;;;;5093317;28;20210;-71
2020/12/19 13:02:31;;;;;;;17.95;15.95;;;10.40;99.90;;;;;;5095453;28;20232;-72
2020/12/19 13:04:58;;;;;;;19.17;15.63;;;10.50;99.90;;;;;;5093906;28;20241;-72
2020/12/19 13:07:25;;;;;;;19.77;17.05;;;10.60;99.90;;;;;;5093808;28;20233;-71
2020/12/19 13:09:52;;;;;;;20.88;16.65;;;10.60;99.90;;;;;;5093511;28;20202;-71
2020/12/19 13:12:20;;;;;;;20.33;16.77;;;10.60;99.90;;;;;;5095706;28;20192;-70
2020/12/19 13:14:47;;;;;;;17.83;14.95;;;10.80;99.90;;;;;;5096542;28;20651;-72
2020/12/19 13:17:15;;;;;;;16.95;14.70;;;10.70;99.90;;;;;;5094462;28;20202;-73
2020/12/19 13:19:42;;;;;;;17.05;15.35;;;10.70;99.90;;;;;;5093830;28;20240;-72
2020/12/19 13:22:13;;;;;;;19.20;16.05;;;10.70;99.90;;;;;;5094773;28;20182;-71
2020/12/19 13:24:40;;;;;;;17.70;14.25;;;10.70;99.90;;;;;;5095985;28;20182;-73
2020/12/19 13:27:07;;;;;;;17.15;15.15;;;10.80;99.90;;;;;;5126683;27;20696;-72
2020/12/19 13:29:35;;;;;;;16.75;14.95;;;10.80;99.90;;;;;;5133645;27;20659;-72
2020/12/19 13:32:02;;;;;;;17.90;13.73;;;10.80;99.90;;;;;;5134678;27;20209;-71
2020/12/19 13:34:28;;;;;;;18.77;15.68;;;10.80;99.90;;;;;;5134764;27;20208;-71
2020/12/19 13:36:55;;;;;;;18.85;15.52;;;10.80;99.90;;;;;;5134918;27;20216;-71
2020/12/19 13:39:22;;;;;;;17.83;15.93;;;10.80;99.90;;;;;;5135156;27;20185;-72
2020/12/19 13:41:49;;;;;;;21.58;16.33;;;10.70;99.90;;;;;;5136818;27;20623;-71
2020/12/19 13:44:16;;;;;;;32.60;23.85;;;10.80;99.90;;;;;;5135338;27;20201;-71
2020/12/19 13:46:44;;;;;;;15.27;13.68;;;10.80;99.90;;;;;;5109434;27;20233;-73
2020/12/19 13:49:10;;;;;;;16.80;14.25;;;10.70;99.90;;;;;;5112212;28;20198;-71
2020/12/19 13:51:37;;;;;;;18.40;15.15;;;10.70;99.90;;;;;;5115178;28;20202;-72
2020/12/19 13:54:04;;;;;;;17.80;15.98;;;10.80;99.90;;;;;;5109285;28;20576;-72
2020/12/19 13:56:32;;;;;;;16.65;14.95;;;10.60;99.90;;;;;;5101296;28;20218;-73
2020/12/19 13:58:58;;;;;;;26.60;20.27;;;10.90;99.90;;;;;;5114681;28;20220;-72
2020/12/19 14:01:32;;;;;;;16.27;14.55;;;10.90;99.90;;;;;;5114660;28;20616;-70
2020/12/19 14:04:00;;;;;;;17.00;14.85;;;10.80;99.90;;;;;;5113528;28;20602;-71
2020/12/19 14:06:29;;;;;;;19.10;14.10;;;10.70;99.90;;;;;;5112965;28;20229;-73
2020/12/19 14:08:56;;;;;;;15.32;13.75;;;10.70;99.90;;;;;;5113281;28;20212;-71
2020/12/19 14:11:35;;;;;;;17.55;14.55;;;10.70;99.90;;;;;;5113338;28;20596;-72
2020/12/19 14:14:03;;;;;;;17.38;15.35;;;10.60;99.90;;;;;;5113437;28;20202;-73
2020/12/19 14:16:30;;;;;;;16.25;14.40;;;10.60;99.90;;;;;;5112868;28;20228;-72
2020/12/19 14:18:57;;;;;;;21.70;14.93;;;10.60;99.90;;;;;;5112974;28;20195;-74
2020/12/19 14:21:26;;;;;;;16.52;13.43;;;10.60;99.90;;;;;;5113498;28;20189;-73
2020/12/19 14:23:52;;;;;;;17.40;14.73;;;10.60;99.90;;;;;;5109824;28;20675;-71
2020/12/19 14:26:23;;;;;;;16.33;14.63;;;10.60;99.90;;;;;;5114414;28;20221;-72
2020/12/19 14:28:50;;;;;;;17.10;12.80;;;10.60;99.90;;;;;;5131885;28;20275;-71
2020/12/19 14:31:17;;;;;;;14.27;12.27;;;10.60;99.90;;;;;;5134749;28;20212;-72
2020/12/19 14:33:44;;;;;;;16.17;14.38;;;10.40;99.90;;;;;;5135187;28;20280;-72
2020/12/19 14:36:16;;;;;;;15.57;13.80;;;10.40;99.90;;;;;;5133916;27;20634;-73
2020/12/19 14:38:46;;;;;;;15.27;13.68;;;10.30;99.90;;;;;;5133514;28;20662;-74
2020/12/19 14:41:14;;;;;;;17.95;16.00;;;10.40;99.90;;;;;;5134818;28;20273;-72
2020/12/19 14:43:41;;;;;;;14.35;12.90;;;10.40;99.90;;;;;;5134776;28;20209;-73
2020/12/19 14:46:08;;;;;;;13.82;12.32;;;10.20;99.90;;;;;;5120759;27;20230;-73
2020/12/19 14:48:35;;;;;;;14.70;13.07;;;10.20;99.90;;;;;;5101707;28;20644;-71
2020/12/19 14:51:02;;;;;;;16.20;12.65;;;10.10;99.90;;;;;;5114438;28;20206;-72
2020/12/19 14:53:29;;;;;;;15.25;12.00;;;10.10;99.90;;;;;;5115473;28;20199;-73
2020/12/19 14:55:56;;;;;;;13.25;11.90;;;10.10;99.90;;;;;;5110763;28;20217;-72
2020/12/19 14:58:23;;;;;;;15.02;11.85;;;10.10;99.90;;;;;;5117223;28;20201;-73
2020/12/19 15:00:51;;;;;;;14.23;12.82;;;10.00;99.90;;;;;;5118701;28;20206;-73
2020/12/19 15:03:18;;;;;;;12.38;11.15;;;10.00;99.90;;;;;;5116823;28;20243;-71
2020/12/19 15:05:45;;;;;;;15.43;13.27;;;10.00;99.90;;;;;;5116477;28;20256;-69
2020/12/19 15:08:12;;;;;;;15.05;13.52;;;10.00;99.90;;;;;;5116260;28;20740;-71
2020/12/19 15:10:39;;;;;;;15.20;12.38;;;9.90;99.90;;;;;;5116087;28;20186;-71
2020/12/19 15:13:07;;;;;;;14.38;12.30;;;9.90;99.90;;;;;;5116747;28;20541;-71
2020/12/19 15:15:34;;;;;;;15.02;13.30;;;9.90;99.90;;;;;;5115927;28;20229;-71
2020/12/19 15:18:00;;;;;;;14.23;12.70;;;9.80;99.90;;;;;;5116427;28;20233;-74
2020/12/19 15:20:27;;;;;;;14.23;12.65;;;9.80;99.90;;;;;;5095532;28;20229;-73
2020/12/19 15:22:54;;;;;;;14.10;12.55;;;9.80;99.90;;;;;;5095677;28;20231;-73
2020/12/19 16:49:46;;;;;;;14.60;11.85;;;9.60;99.90;;;;;;5000901;28;20223;-83
2020/12/19 17:13:57;;;;;;;14.13;11.18;;;9.70;99.90;;;;;;4905903;29;20211;-84
2020/12/19 17:37:00;;;;;;;13.63;12.15;;;10.10;99.90;;;;;;4918744;29;20272;-80
2020/12/19 17:39:33;;;;;;;17.48;13.60;;;10.10;99.90;;;;;;4983985;28;20224;-84
2020/12/19 17:42:01;;;;;;;11.90;10.70;;;10.20;99.90;;;;;;5000256;28;20697;-84
2020/12/19 17:44:27;;;;;;;12.60;11.35;;;10.20;99.90;;;;;;5072080;28;20226;-82
2020/12/19 17:46:54;;;;;;;14.85;11.68;;;10.20;99.90;;;;;;5086569;28;20230;-83
2020/12/19 17:49:21;;;;;;;13.00;11.75;;;10.40;99.90;;;;;;5083123;28;20202;-81
2020/12/19 17:51:47;;;;;;;12.50;11.18;;;10.30;99.90;;;;;;5092015;28;20209;-84
2020/12/19 17:54:15;;;;;;;12.65;11.45;;;10.40;99.90;;;;;;5096103;28;20366;-83
2020/12/19 17:56:41;;;;;;;12.00;10.80;;;10.40;99.90;;;;;;5097026;28;20347;-83
2020/12/19 17:59:08;;;;;;;11.38;10.27;;;10.40;99.90;;;;;;5082297;28;20229;-82
2020/12/19 18:01:36;;;;;;;13.57;11.45;;;10.50;99.90;;;;;;5084036;28;20544;-83
2020/12/19 18:04:03;;;;;;;13.73;12.35;;;10.40;99.90;;;;;;5084200;28;20258;-82
2020/12/19 18:06:29;;;;;;;12.80;10.88;;;10.40;99.90;;;;;;5085674;28;20219;-83
2020/12/19 18:08:56;;;;;;;19.45;14.73;;;10.40;99.90;;;;;;5089125;28;20203;-80
2020/12/19 18:11:24;;;;;;;15.43;11.43;;;10.40;99.90;;;;;;5088313;28;20207;-81
2020/12/19 18:13:50;;;;;;;14.32;10.80;;;10.40;99.90;;;;;;5089436;28;20226;-82
2020/12/19 18:16:17;;;;;;;13.88;12.23;;;10.50;99.90;;;;;;5097831;28;20231;-82
2020/12/19 18:18:43;;;;;;;10.90;9.80;;;10.60;99.90;;;;;;5110296;28;20206;-82
2020/12/19 18:21:13;;;;;;;12.93;11.60;;;10.50;99.90;;;;;;5107904;28;20208;-82
2020/12/19 18:23:39;;;;;;;11.40;9.68;;;10.60;99.90;;;;;;5105335;28;20336;-82
2020/12/19 18:26:06;;;;;;;12.48;11.18;;;10.60;99.90;;;;;;5105041;28;20237;-83
2020/12/19 18:28:34;;;;;;;12.15;10.85;;;10.60;99.90;;;;;;5108946;28;20549;-84
2020/12/19 18:31:01;;;;;;;13.40;12.00;;;10.60;99.90;;;;;;5118611;28;20246;-83
2020/12/19 18:33:28;;;;;;;13.48;12.00;;;10.60;99.90;;;;;;5107860;28;20271;-83
2020/12/19 18:35:54;;;;;;;12.65;10.27;;;10.70;99.90;;;;;;5085206;28;20199;-84
2020/12/19 18:38:21;;;;;;;11.35;9.55;;;10.60;99.90;;;;;;5094147;28;20198;-84
2020/12/19 18:40:47;;;;;;;11.60;9.40;;;10.50;99.90;;;;;;5101542;28;20202;-83
2020/12/19 18:43:15;;;;;;;10.52;9.52;;;10.70;99.90;;;;;;5103553;28;20199;-84
2020/12/19 18:45:44;;;;;;;10.55;9.40;;;10.80;99.90;;;;;;5102010;28;20235;-84
2020/12/19 18:48:29;;;;;;;11.88;10.20;;;10.90;99.90;;;;;;5086712;28;20253;-83
2020/12/19 18:50:55;;;;;;;15.95;12.00;;;10.90;99.90;;;;;;5105571;28;20206;-85
2020/12/19 18:53:22;;;;;;;11.85;10.65;;;11.00;99.90;;;;;;5098669;28;20204;-86
2020/12/19 18:55:48;;;;;;;13.10;10.80;;;11.10;99.90;;;;;;5087979;28;20216;-85
2020/12/19 18:58:15;;;;;;;11.88;10.73;;;11.10;99.90;;;;;;5086372;28;20204;-85
2020/12/19 19:00:42;;;;;;;11.90;10.60;;;11.20;99.90;;;;;;5087500;28;20214;-85
2020/12/19 19:03:09;;;;;;;12.75;10.00;;;11.30;99.90;;;;;;5104706;28;20207;-85
2020/12/19 19:05:36;;;;;;;10.45;8.82;;;11.30;99.90;;;;;;5086393;28;20224;-84
2020/12/19 19:08:02;;;;;;;11.10;9.35;;;11.30;99.90;;;;;;5084084;28;20710;-85
2020/12/19 19:10:54;;;;;;;10.57;9.57;;;11.30;99.90;;;;;;5086064;28;20303;-86
2020/12/19 19:13:21;;;;;;;10.73;8.48;;;11.40;99.90;;;;;;5073510;28;20207;-86
2020/12/19 19:15:48;;;;;;;9.93;8.90;;;11.50;99.90;;;;;;5084264;28;20254;-84
2020/12/19 19:18:15;;;;;;;10.20;9.20;;;11.50;99.90;;;;;;5085997;28;20222;-86
2020/12/19 19:20:41;;;;;;;10.40;8.80;;;11.50;99.90;;;;;;5084793;28;20200;-86
2020/12/19 19:23:08;;;;;;;11.55;9.35;;;11.60;99.90;;;;;;5083862;28;20219;-84
2020/12/19 19:25:35;;;;;;;9.75;8.63;;;11.60;99.90;;;;;;5080358;28;20219;-85
2020/12/19 19:28:02;;;;;;;9.65;7.82;;;11.70;99.90;;;;;;5082325;28;20218;-85
2020/12/19 19:30:28;;;;;;;9.38;8.48;;;11.60;99.90;;;;;;5082907;28;20639;-84
2020/12/19 19:32:56;;;;;;;9.25;8.35;;;11.60;99.90;;;;;;5082882;28;20242;-85
2020/12/19 19:35:24;;;;;;;8.88;7.90;;;11.60;99.90;;;;;;5081700;28;20290;-85
2020/12/19 19:37:51;;;;;;;10.82;8.63;;;11.60;99.90;;;;;;5082110;28;20204;-84
2020/12/19 19:40:18;;;;;;;10.10;8.95;;;11.60;99.90;;;;;;5081989;28;20250;-85